Red Falls, New York
Current Conditions -  °F | °C
As of 10:51 AM on Monday 22 Dec 2014 (Local Time) from KALB Reporting Station
Light Snow Light Snow  
Wind Chill: 31°   Ceiling: 1700
Heat Index: 31°   Visibility: 8mi
Dew Point: 25°   Wind: 3mph
Humidity: 79%   Direction: 320°NW
Pressure: 30.36"   Gusts: NA
Location:  42.2982°N, 74.3984°W
Report Text: KALB 221551Z 32003KT 8SM -SN OVC017 M01/M04 A3036 RMK AO2 SLP283 PCPN VRY LGT P0000 T10061039
Loading
Personal Weather Stations






























Interactive Weather Map New forecast layout! Learn more

10-Day Weather Forecast

Advertisements
Track Severe Weather on mobile